Bienvenidos al Sitio de AASANA BOLIVIA
Aeropuerto: Internaciónal El Alto
HORA UTC 14:00
08°C
Humedad: 34%

Fecha: 18/08/2018


Calma
ESTACIÓN:SLLP
LATITUD|LONGITUD:16-08S|68-10W
HORA UTC:14:00
DESCRIPCIÓN: SLLP 181400Z 26005KT 210V310 9999 NSC 08/M07 Q1041 A3074 630.1 HR34 HZ SW/W/NW FU NOSIG=
Regional La Paz
EstaciónAerodromoSit. GeograficaDescripción
SLAPApolo14-44S-68-24W SLAP 312000Z 34015KSBAZ053‘4
SLLPInternaciónal El Alto16-08S-68-10W SLLP 181400Z 26005KT 210V310 9999 NSC 08/M07 Q1041 A3074 630.1 HR34 HZ SW/W/NW FU NOSIG=
SLCNCharaña17-35S-69-25W
SLSBSan Borja14-51S-66-44W SLSB 181400Z 00000KT 8000 NSC 29/22 Q1016 A3001 HR70 FU RWY NML=
SLUYUyuni20-27S-62-52W SLUY 181400Z VRB02KT 4000SE HZ NSC 02/M15 Q1037 A3065 661.0 HR28 HZ E/SE/S FU=
SLOROruro17-57S-67-04W SLOR 181400Z 36006KT 9999 NSC 04/M09 Q1037 A3065 657.2 FU HR42=
SLRQRurrenabaque14-25S-67-29W SLRQ 181400Z 00000KT 9999 NSC 29/24 Q1016 A3003 HR77=
SLRYReyes14-18S-67-21W SLRY 181400Z 00000KT 9999 NSC 28/22 Q1016 A3001 HR72 RWY NML=
SLCCCopacabana - Tito Yupanqui16-11S-69-05W SLCC 171200Z NIL=
Regional Cochabamba
EstaciónAerodromoSit. GeograficaDescripción
SLCBCochabamba17-25S-66-10W SLCB 181400Z 00000KT 9000 NSC 18/05 Q1028 A3037 754.1 HR42 FU NOSIG=
SLVMVillamontes21-15S-63-24W SLVM 172000Z 36015G25KT 9999 FEW030 30/17 Q1013 A2993 HR44 FU CI=
SLBJBermejo22-46S-64-18W SLBJ 072000Z 18004KT 9999 SCT025 FEW025TCU BKN200 31/26 Q1004 A2965 HR71 TCU/N/NE/NW=
SLAGMonteagudo19-49S-63-58W SLAG 181300Z 02003KT 9999 NSC 21/14 Q1018 A3009 890.8 HR66 FU=
SLYAYacuiba21-57S-63-39W SLYA 181400Z 00000KT 9999 NSC 26/18 Q1022 A2990 937.2 HR59 FU=
SLHIChimore16-58S-65-09W SLHI 172300Z 00000KT 9999 FEW020 24/22 Q1016 A3001 988.8 HR87 AC=
SLPOPotosí19-32S-65-43W SLPO 181400Z 25010KT 9999 NSC 09/M00 Q1039 A3068 638.7 HR53=
SLTJTarija21-33S-64-42W SLTJ 181400Z 00000KT 9999 NSC 17/09 Q1019 A3011 814.7 HR62 FU=
SLALAlcantari19-14S-65-09W SLAL 181400Z 24004KT 9999 NSC 13/01 Q1031 A3044 705.3 HR46=
Regional Santa Cruz
EstaciónAerodromoSit. GeograficaDescripción
SLASAscención de Guarayos15-55S-63-09W SLAS 181400Z 00000KT 9999 NSC 24/13 Q1019 A3009 HR52 RWY NML=
SLSISan Ignacio de Velasco16-23S-60-57W SLSI 181400Z 00000KT 9999 NSC 25/21 Q1017 A3003 HR71 RWY NML=
SLJVSan Javier16-16S-62-28W SLJV 181400Z 36006KT 9999 SCT080 27/19 Q1016 A3000 HR71 RWY NML =
SLPSPuerto Suárez18-58S-57-49W SLPS 181400Z 09006KT 9999 NSC 27/22 Q1016 A3001 HR72=
SLETEl Trompillo17-48S-63-10W SLET 181400Z 32018G30KT 9999 FEW017 28/18 Q1015 A2999 HR57 NOSIG=
SLCPConcepción16-08S-62-01W SLCP 181400Z 35006KT 9999 NSC 26/20 Q1020 A3012 HR71 RWY NML=
SLRBRoboré18-19S-59-45W SLRB 181400Z 00000KT 9999 NSC 26/20 Q1020 A3012 HR69 RWY NML=
SLCACamiri20-00S-63-31W SLCA 181400Z 36004KT 9999 NSC 22/15 Q1016 A3000 HR65 FU RWY NML =
SLJESan José de Chiquitos17-49S-60-44W SLJE 181400Z 36012KT 9999 NSC 30/17 Q1019 A3009 HR46 RWY NML=
SLVRInternaciónal Viru Viru17-38S-63-08W SLVR 181400Z 33014G25KT 9999 FEW017 28/18 Q1016 A3002 HR54 FU NOSIG=
SLTISan Matías16-20S-58-24W SLTI 181400Z 36006KT 9999 NSC 30/19 Q1021 A3015 HR50 RWY NML=
SLVGValle Grande18-28S-64-05W SLVG 181400Z 36005KT 9999 SC999 NSC 26/18 Qùì
Regional Beni
EstaciónAerodromoSit. GeograficaDescripción
SLCOCobija11-02S-68-47W SLCO 181400Z 23003KT 9999 NSC 28/23 Q1017 A3004 989.8 HR72 FU=
SLBUBaures13-39S-63-42W SLBU 181400Z 00000KT 9999 NSC 31/21 Q1016 A3001 HR55 RWY NML=
SLSMSan Ignacio de Moxos14-57S-65-38W SLSM 181400Z 00000KT 8000 NSC 26/21 Q1015 A2998 HR73 FU RWY NML=
SLGMGuayaramerín10-53S-65-23W SLGM 181400Z 09004KT 9999 SCT080 28/22 Q1016 A3003 HR72=
SLJOSan Joaquin13-03S-64-39W SLJO 181400Z 00000KT 9999 NSC 28/21 Q1016 A3003 HR66 RWY NML=
SLRASan Ramón13-15S-64-36W SLRA 181400Z 36004KT 9999 NSC 29/20 Q1015 A2999 HR60 RWY NML=
SLSASanta Ana de Yacuma13-45S-65-26W SLSA 181400Z 29006KT 8000 NSC 28/20 Q1020 A3013 HR60 FU=
SLMGSan Magdalena13-15S-64-36W SLMG 181400Z 00000KT 9999 NSC 29/21 Q1014 A2995 HR62 RWY NML=
SLRIRiberalta11-00S-66-04W SLRI 181400Z 00000KT 5000 FU NSC 29/21 Q1017 A3004 HR66=
SLTRTrinidad14-49S-64-54W SLTR 181400Z 30004KT 8000 NSC 29/19 Q1016 A3002 998.1 HR57 FU NOSIG=
SLSRSanta Rosa14-04S-66-47W SLSR 181400Z 12006KT 7000 NSC 29/22 Q1017 A3003 HR66 FU RWY NML=